Weather at Puerto Princesa Airport

Public forecast

Using degrees Celsius for public forecast. Weather courtesy of forecast.io.

Current aviation weather report (METAR) for Puerto Princesa Airport

Retrieved 2020/12/04 12:00 UTC (1 hour ago):

RPVP 041200Z 32006KT 9999 SCT015 BKN070 26/23 Q1009 RMK A2980

Aviation forecast (TAF) for Puerto Princesa Airport

Retrieved 2020/12/04 12:00 UTC (1 hour ago):

TAF RPVP 041100Z 0412/0512 14005KT 9999 FEW019 BKN080 TEMPO 0412/0418 22003KT -TSRA FEW017CB SCT019 BKN080